sensor_id;sensor_type;location;lat;lon;timestamp;P1;durP1;ratioP1;P2;durP2;ratioP2
52618;SDS011;38513;53.234;6.568;2022-11-15T00:00:48;35.53;;;27.50;;
52618;SDS011;38513;53.234;6.568;2022-11-15T00:03:14;35.22;;;27.05;;
52618;SDS011;38513;53.234;6.568;2022-11-15T00:05:40;34.80;;;27.10;;
52618;SDS011;38513;53.234;6.568;2022-11-15T00:08:07;33.53;;;26.70;;
52618;SDS011;38513;53.234;6.568;2022-11-15T00:10:33;33.47;;;26.33;;
52618;SDS011;38513;53.234;6.568;2022-11-15T00:12:59;34.22;;;27.45;;
52618;SDS011;38513;53.234;6.568;2022-11-15T00:15:25;34.35;;;27.10;;
52618;SDS011;38513;53.234;6.568;2022-11-15T00:17:51;34.17;;;27.00;;
52618;SDS011;38513;53.234;6.568;2022-11-15T00:20:18;35.15;;;28.05;;
52618;SDS011;38513;53.234;6.568;2022-11-15T00:22:44;36.70;;;28.30;;
52618;SDS011;38513;53.234;6.568;2022-11-15T00:25:10;36.80;;;28.63;;
52618;SDS011;38513;53.234;6.568;2022-11-15T00:27:36;38.80;;;29.23;;
52618;SDS011;38513;53.234;6.568;2022-11-15T00:30:02;37.53;;;29.48;;
52618;SDS011;38513;53.234;6.568;2022-11-15T00:32:32;40.50;;;30.80;;
52618;SDS011;38513;53.234;6.568;2022-11-15T00:34:58;41.20;;;31.00;;
52618;SDS011;38513;53.234;6.568;2022-11-15T00:37:24;41.67;;;31.38;;
52618;SDS011;38513;53.234;6.568;2022-11-15T00:39:50;40.83;;;30.40;;
52618;SDS011;38513;53.234;6.568;2022-11-15T00:42:16;41.58;;;30.63;;
52618;SDS011;38513;53.234;6.568;2022-11-15T00:44:42;44.08;;;32.65;;
52618;SDS011;38513;53.234;6.568;2022-11-15T00:47:08;42.72;;;32.60;;
52618;SDS011;38513;53.234;6.568;2022-11-15T00:49:34;41.72;;;31.45;;
52618;SDS011;38513;53.234;6.568;2022-11-15T00:52:00;41.00;;;30.57;;
52618;SDS011;38513;53.234;6.568;2022-11-15T00:54:26;37.38;;;29.80;;
52618;SDS011;38513;53.234;6.568;2022-11-15T00:56:53;41.13;;;30.38;;
52618;SDS011;38513;53.234;6.568;2022-11-15T00:59:19;39.67;;;30.60;;
52618;SDS011;38513;53.234;6.568;2022-11-15T01:01:45;40.60;;;30.30;;
52618;SDS011;38513;53.234;6.568;2022-11-15T01:04:11;36.72;;;28.58;;
52618;SDS011;38513;53.234;6.568;2022-11-15T01:06:37;38.75;;;29.13;;
52618;SDS011;38513;53.234;6.568;2022-11-15T01:09:03;37.38;;;29.45;;
52618;SDS011;38513;53.234;6.568;2022-11-15T01:11:29;36.47;;;28.38;;
52618;SDS011;38513;53.234;6.568;2022-11-15T01:13:55;35.05;;;28.00;;
52618;SDS011;38513;53.234;6.568;2022-11-15T01:16:22;36.65;;;28.65;;
52618;SDS011;38513;53.234;6.568;2022-11-15T01:18:48;33.47;;;27.38;;
52618;SDS011;38513;53.234;6.568;2022-11-15T01:21:15;34.07;;;26.43;;
52618;SDS011;38513;53.234;6.568;2022-11-15T01:23:45;33.90;;;25.98;;
52618;SDS011;38513;53.234;6.568;2022-11-15T01:26:12;34.15;;;26.33;;
52618;SDS011;38513;53.234;6.568;2022-11-15T01:28:41;33.80;;;26.02;;
52618;SDS011;38513;53.234;6.568;2022-11-15T01:31:18;33.90;;;26.02;;
52618;SDS011;38513;53.234;6.568;2022-11-15T01:33:44;31.83;;;26.17;;
52618;SDS011;38513;53.234;6.568;2022-11-15T01:36:12;32.78;;;26.30;;
52618;SDS011;38513;53.234;6.568;2022-11-15T01:38:38;33.10;;;26.60;;
52618;SDS011;38513;53.234;6.568;2022-11-15T01:41:04;34.28;;;26.73;;
52618;SDS011;38513;53.234;6.568;2022-11-15T01:43:32;34.28;;;28.55;;
52618;SDS011;38513;53.234;6.568;2022-11-15T01:46:10;37.80;;;28.83;;
52618;SDS011;38513;53.234;6.568;2022-11-15T01:48:43;38.15;;;28.65;;
52618;SDS011;38513;53.234;6.568;2022-11-15T01:51:10;38.30;;;29.58;;
52618;SDS011;38513;53.234;6.568;2022-11-15T01:53:38;36.22;;;27.42;;
52618;SDS011;38513;53.234;6.568;2022-11-15T01:56:06;38.42;;;29.58;;
52618;SDS011;38513;53.234;6.568;2022-11-15T01:58:34;39.07;;;28.67;;
52618;SDS011;38513;53.234;6.568;2022-11-15T02:01:00;35.25;;;27.98;;
52618;SDS011;38513;53.234;6.568;2022-11-15T02:03:31;36.28;;;28.15;;
52618;SDS011;38513;53.234;6.568;2022-11-15T02:05:58;36.30;;;28.20;;
52618;SDS011;38513;53.234;6.568;2022-11-15T02:08:25;37.42;;;28.55;;
52618;SDS011;38513;53.234;6.568;2022-11-15T02:10:51;39.88;;;28.23;;
52618;SDS011;38513;53.234;6.568;2022-11-15T02:13:17;37.85;;;28.73;;
52618;SDS011;38513;53.234;6.568;2022-11-15T02:18:37;36.70;;;27.52;;
52618;SDS011;38513;53.234;6.568;2022-11-15T02:33:35;33.22;;;25.75;;
52618;SDS011;38513;53.234;6.568;2022-11-15T02:41:48;37.65;;;26.52;;
52618;SDS011;38513;53.234;6.568;2022-11-15T02:44:33;35.85;;;26.35;;
52618;SDS011;38513;53.234;6.568;2022-11-15T02:47:02;35.47;;;26.30;;
52618;SDS011;38513;53.234;6.568;2022-11-15T02:49:46;39.63;;;27.95;;
52618;SDS011;38513;53.234;6.568;2022-11-15T02:52:16;38.70;;;27.63;;
52618;SDS011;38513;53.234;6.568;2022-11-15T02:54:52;39.97;;;27.80;;
52618;SDS011;38513;53.234;6.568;2022-11-15T02:57:18;40.83;;;27.65;;
52618;SDS011;38513;53.234;6.568;2022-11-15T03:02:41;39.65;;;28.35;;
52618;SDS011;38513;53.234;6.568;2022-11-15T03:05:25;41.25;;;29.23;;
52618;SDS011;38513;53.234;6.568;2022-11-15T03:10:32;42.37;;;28.57;;
52618;SDS011;38513;53.234;6.568;2022-11-15T03:13:06;45.97;;;30.05;;
52618;SDS011;38513;53.234;6.568;2022-11-15T03:15:37;45.85;;;29.88;;
52618;SDS011;38513;53.234;6.568;2022-11-15T03:18:05;44.10;;;30.25;;
52618;SDS011;38513;53.234;6.568;2022-11-15T03:20:34;44.80;;;30.35;;
52618;SDS011;38513;53.234;6.568;2022-11-15T03:23:03;44.77;;;30.37;;
52618;SDS011;38513;53.234;6.568;2022-11-15T03:25:31;46.70;;;30.67;;
52618;SDS011;38513;53.234;6.568;2022-11-15T03:27:58;45.22;;;30.17;;
52618;SDS011;38513;53.234;6.568;2022-11-15T03:30:26;43.92;;;29.10;;
52618;SDS011;38513;53.234;6.568;2022-11-15T03:32:53;46.90;;;30.00;;
52618;SDS011;38513;53.234;6.568;2022-11-15T03:35:22;45.00;;;29.33;;
52618;SDS011;38513;53.234;6.568;2022-11-15T03:37:51;48.22;;;31.38;;
52618;SDS011;38513;53.234;6.568;2022-11-15T03:40:18;46.17;;;30.38;;
52618;SDS011;38513;53.234;6.568;2022-11-15T03:42:54;48.65;;;30.45;;
52618;SDS011;38513;53.234;6.568;2022-11-15T03:45:29;46.08;;;29.60;;
52618;SDS011;38513;53.234;6.568;2022-11-15T03:50:36;47.35;;;29.63;;
52618;SDS011;38513;53.234;6.568;2022-11-15T03:53:02;47.22;;;29.33;;
52618;SDS011;38513;53.234;6.568;2022-11-15T03:55:28;49.83;;;30.98;;
52618;SDS011;38513;53.234;6.568;2022-11-15T03:57:57;47.15;;;29.65;;
52618;SDS011;38513;53.234;6.568;2022-11-15T04:00:24;46.35;;;29.05;;
52618;SDS011;38513;53.234;6.568;2022-11-15T04:02:50;45.75;;;29.70;;
52618;SDS011;38513;53.234;6.568;2022-11-15T04:05:17;46.83;;;29.92;;
52618;SDS011;38513;53.234;6.568;2022-11-15T04:07:43;45.33;;;29.23;;
52618;SDS011;38513;53.234;6.568;2022-11-15T04:10:12;45.30;;;29.27;;
52618;SDS011;38513;53.234;6.568;2022-11-15T04:12:39;45.30;;;29.00;;
52618;SDS011;38513;53.234;6.568;2022-11-15T04:15:11;47.70;;;29.83;;
52618;SDS011;38513;53.234;6.568;2022-11-15T04:17:38;47.67;;;29.00;;
52618;SDS011;38513;53.234;6.568;2022-11-15T04:20:06;46.75;;;29.67;;
52618;SDS011;38513;53.234;6.568;2022-11-15T04:22:52;45.63;;;28.55;;
52618;SDS011;38513;53.234;6.568;2022-11-15T04:25:36;44.88;;;28.45;;
52618;SDS011;38513;53.234;6.568;2022-11-15T04:28:02;46.20;;;29.77;;
52618;SDS011;38513;53.234;6.568;2022-11-15T04:30:29;45.95;;;29.50;;
52618;SDS011;38513;53.234;6.568;2022-11-15T04:32:55;48.53;;;30.10;;
52618;SDS011;38513;53.234;6.568;2022-11-15T04:35:21;46.67;;;30.33;;
52618;SDS011;38513;53.234;6.568;2022-11-15T04:37:47;49.55;;;30.23;;
52618;SDS011;38513;53.234;6.568;2022-11-15T04:40:13;48.97;;;30.92;;
52618;SDS011;38513;53.234;6.568;2022-11-15T04:42:42;51.25;;;30.67;;
52618;SDS011;38513;53.234;6.568;2022-11-15T04:45:09;53.27;;;31.33;;
52618;SDS011;38513;53.234;6.568;2022-11-15T04:47:35;49.85;;;31.13;;
52618;SDS011;38513;53.234;6.568;2022-11-15T04:50:01;55.95;;;32.63;;
52618;SDS011;38513;53.234;6.568;2022-11-15T04:52:27;56.75;;;31.92;;
52618;SDS011;38513;53.234;6.568;2022-11-15T04:54:54;54.10;;;32.60;;
52618;SDS011;38513;53.234;6.568;2022-11-15T04:57:20;58.50;;;33.58;;
52618;SDS011;38513;53.234;6.568;2022-11-15T04:59:46;60.28;;;33.83;;
52618;SDS011;38513;53.234;6.568;2022-11-15T05:02:12;57.42;;;33.50;;
52618;SDS011;38513;53.234;6.568;2022-11-15T05:04:38;59.17;;;33.77;;
52618;SDS011;38513;53.234;6.568;2022-11-15T05:07:04;62.72;;;34.38;;
52618;SDS011;38513;53.234;6.568;2022-11-15T05:09:31;57.35;;;34.10;;
52618;SDS011;38513;53.234;6.568;2022-11-15T05:11:57;59.47;;;34.53;;
52618;SDS011;38513;53.234;6.568;2022-11-15T05:14:23;63.93;;;35.37;;
52618;SDS011;38513;53.234;6.568;2022-11-15T05:16:49;61.92;;;35.47;;
52618;SDS011;38513;53.234;6.568;2022-11-15T05:19:15;67.93;;;36.53;;
52618;SDS011;38513;53.234;6.568;2022-11-15T05:21:41;67.97;;;37.03;;
52618;SDS011;38513;53.234;6.568;2022-11-15T05:24:10;67.70;;;38.13;;
52618;SDS011;38513;53.234;6.568;2022-11-15T05:26:36;69.93;;;37.45;;
52618;SDS011;38513;53.234;6.568;2022-11-15T05:29:02;69.60;;;39.25;;
52618;SDS011;38513;53.234;6.568;2022-11-15T05:31:28;74.75;;;40.63;;
52618;SDS011;38513;53.234;6.568;2022-11-15T05:33:55;78.32;;;41.75;;
52618;SDS011;38513;53.234;6.568;2022-11-15T05:36:27;75.63;;;41.65;;
52618;SDS011;38513;53.234;6.568;2022-11-15T05:38:54;81.10;;;43.83;;
52618;SDS011;38513;53.234;6.568;2022-11-15T05:41:42;88.82;;;45.55;;
52618;SDS011;38513;53.234;6.568;2022-11-15T05:44:07;86.65;;;42.78;;
52618;SDS011;38513;53.234;6.568;2022-11-15T05:46:37;86.60;;;44.80;;
52618;SDS011;38513;53.234;6.568;2022-11-15T05:49:05;92.88;;;46.05;;
52618;SDS011;38513;53.234;6.568;2022-11-15T05:51:32;91.13;;;46.20;;
52618;SDS011;38513;53.234;6.568;2022-11-15T05:53:58;91.10;;;46.85;;
52618;SDS011;38513;53.234;6.568;2022-11-15T05:56:26;97.38;;;47.30;;
52618;SDS011;38513;53.234;6.568;2022-11-15T05:58:53;95.57;;;46.92;;
52618;SDS011;38513;53.234;6.568;2022-11-15T06:01:20;92.07;;;47.20;;
52618;SDS011;38513;53.234;6.568;2022-11-15T06:03:47;96.10;;;47.17;;
52618;SDS011;38513;53.234;6.568;2022-11-15T06:06:13;92.33;;;48.40;;
52618;SDS011;38513;53.234;6.568;2022-11-15T06:08:39;100.35;;;49.33;;
52618;SDS011;38513;53.234;6.568;2022-11-15T06:11:05;103.95;;;49.60;;
52618;SDS011;38513;53.234;6.568;2022-11-15T06:13:32;102.22;;;50.17;;
52618;SDS011;38513;53.234;6.568;2022-11-15T06:15:59;101.82;;;50.80;;
52618;SDS011;38513;53.234;6.568;2022-11-15T06:18:25;112.07;;;51.50;;
52618;SDS011;38513;53.234;6.568;2022-11-15T06:20:52;113.25;;;51.17;;
52618;SDS011;38513;53.234;6.568;2022-11-15T06:23:18;114.18;;;53.35;;
52618;SDS011;38513;53.234;6.568;2022-11-15T06:25:44;120.05;;;53.75;;
52618;SDS011;38513;53.234;6.568;2022-11-15T06:28:10;111.27;;;53.30;;
52618;SDS011;38513;53.234;6.568;2022-11-15T06:30:36;105.80;;;52.83;;
52618;SDS011;38513;53.234;6.568;2022-11-15T06:33:03;112.78;;;53.28;;
52618;SDS011;38513;53.234;6.568;2022-11-15T06:35:33;112.60;;;53.88;;
52618;SDS011;38513;53.234;6.568;2022-11-15T06:38:04;108.47;;;52.20;;
52618;SDS011;38513;53.234;6.568;2022-11-15T06:40:32;110.30;;;52.65;;
52618;SDS011;38513;53.234;6.568;2022-11-15T06:42:59;115.82;;;53.60;;
52618;SDS011;38513;53.234;6.568;2022-11-15T06:45:25;115.57;;;53.33;;
52618;SDS011;38513;53.234;6.568;2022-11-15T06:47:51;108.03;;;51.88;;
52618;SDS011;38513;53.234;6.568;2022-11-15T06:50:17;105.43;;;52.65;;
52618;SDS011;38513;53.234;6.568;2022-11-15T06:52:44;112.10;;;53.22;;
52618;SDS011;38513;53.234;6.568;2022-11-15T06:55:13;99.43;;;52.67;;
52618;SDS011;38513;53.234;6.568;2022-11-15T06:57:49;111.63;;;53.30;;
52618;SDS011;38513;53.234;6.568;2022-11-15T07:00:16;106.50;;;53.37;;
52618;SDS011;38513;53.234;6.568;2022-11-15T07:02:43;99.75;;;52.08;;
52618;SDS011;38513;53.234;6.568;2022-11-15T07:05:09;100.82;;;53.03;;
52618;SDS011;38513;53.234;6.568;2022-11-15T07:07:35;102.65;;;52.72;;
52618;SDS011;38513;53.234;6.568;2022-11-15T07:10:02;114.93;;;54.80;;
52618;SDS011;38513;53.234;6.568;2022-11-15T07:12:28;105.00;;;51.38;;
52618;SDS011;38513;53.234;6.568;2022-11-15T07:14:54;110.93;;;53.60;;
52618;SDS011;38513;53.234;6.568;2022-11-15T07:17:20;106.78;;;52.78;;
52618;SDS011;38513;53.234;6.568;2022-11-15T07:19:46;97.95;;;51.20;;
52618;SDS011;38513;53.234;6.568;2022-11-15T07:25:24;101.15;;;51.90;;
52618;SDS011;38513;53.234;6.568;2022-11-15T07:41:04;100.93;;;51.72;;
52618;SDS011;38513;53.234;6.568;2022-11-15T07:43:31;100.85;;;50.50;;
52618;SDS011;38513;53.234;6.568;2022-11-15T07:45:58;96.25;;;50.40;;
52618;SDS011;38513;53.234;6.568;2022-11-15T07:48:30;93.50;;;49.22;;
52618;SDS011;38513;53.234;6.568;2022-11-15T07:50:57;97.30;;;50.07;;
52618;SDS011;38513;53.234;6.568;2022-11-15T07:53:23;95.28;;;49.05;;
52618;SDS011;38513;53.234;6.568;2022-11-15T07:55:49;92.05;;;49.63;;
52618;SDS011;38513;53.234;6.568;2022-11-15T07:58:16;87.18;;;47.47;;
52618;SDS011;38513;53.234;6.568;2022-11-15T08:00:43;87.05;;;46.90;;
52618;SDS011;38513;53.234;6.568;2022-11-15T08:03:15;83.03;;;46.63;;
52618;SDS011;38513;53.234;6.568;2022-11-15T08:05:43;85.30;;;46.72;;
52618;SDS011;38513;53.234;6.568;2022-11-15T08:08:19;82.07;;;46.53;;
52618;SDS011;38513;53.234;6.568;2022-11-15T08:10:49;92.15;;;49.83;;
52618;SDS011;38513;53.234;6.568;2022-11-15T08:13:15;78.78;;;44.08;;
52618;SDS011;38513;53.234;6.568;2022-11-15T08:15:41;77.20;;;44.58;;
52618;SDS011;38513;53.234;6.568;2022-11-15T08:18:27;71.15;;;43.15;;
52618;SDS011;38513;53.234;6.568;2022-11-15T08:20:53;71.38;;;43.03;;
52618;SDS011;38513;53.234;6.568;2022-11-15T08:23:19;71.60;;;43.90;;
52618;SDS011;38513;53.234;6.568;2022-11-15T08:25:45;67.27;;;42.27;;
52618;SDS011;38513;53.234;6.568;2022-11-15T08:28:12;69.07;;;41.00;;
52618;SDS011;38513;53.234;6.568;2022-11-15T08:30:40;66.22;;;41.30;;
52618;SDS011;38513;53.234;6.568;2022-11-15T08:33:11;67.80;;;40.20;;
52618;SDS011;38513;53.234;6.568;2022-11-15T08:35:37;63.45;;;39.55;;
52618;SDS011;38513;53.234;6.568;2022-11-15T08:38:03;61.65;;;39.42;;
52618;SDS011;38513;53.234;6.568;2022-11-15T08:40:29;56.50;;;37.47;;
52618;SDS011;38513;53.234;6.568;2022-11-15T08:42:56;56.55;;;38.33;;
52618;SDS011;38513;53.234;6.568;2022-11-15T08:45:23;54.80;;;37.13;;
52618;SDS011;38513;53.234;6.568;2022-11-15T08:47:49;54.88;;;36.20;;
52618;SDS011;38513;53.234;6.568;2022-11-15T08:50:16;55.05;;;37.10;;
52618;SDS011;38513;53.234;6.568;2022-11-15T08:52:42;52.25;;;35.72;;
52618;SDS011;38513;53.234;6.568;2022-11-15T08:55:11;51.08;;;35.58;;
52618;SDS011;38513;53.234;6.568;2022-11-15T08:57:38;49.60;;;34.92;;
52618;SDS011;38513;53.234;6.568;2022-11-15T09:00:04;50.58;;;34.95;;
52618;SDS011;38513;53.234;6.568;2022-11-15T09:02:30;50.00;;;33.50;;
52618;SDS011;38513;53.234;6.568;2022-11-15T09:04:56;47.38;;;33.47;;
52618;SDS011;38513;53.234;6.568;2022-11-15T09:07:22;43.37;;;31.67;;
52618;SDS011;38513;53.234;6.568;2022-11-15T09:09:52;44.78;;;31.50;;
52618;SDS011;38513;53.234;6.568;2022-11-15T09:12:18;41.38;;;30.15;;
52618;SDS011;38513;53.234;6.568;2022-11-15T09:14:44;41.43;;;30.33;;
52618;SDS011;38513;53.234;6.568;2022-11-15T09:17:10;41.03;;;29.42;;
52618;SDS011;38513;53.234;6.568;2022-11-15T09:19:37;36.83;;;28.27;;
52618;SDS011;38513;53.234;6.568;2022-11-15T09:22:07;40.67;;;27.73;;
52618;SDS011;38513;53.234;6.568;2022-11-15T09:24:42;36.05;;;27.48;;
52618;SDS011;38513;53.234;6.568;2022-11-15T09:32:45;35.13;;;27.15;;
52618;SDS011;38513;53.234;6.568;2022-11-15T09:35:20;34.17;;;26.58;;
52618;SDS011;38513;53.234;6.568;2022-11-15T09:37:47;35.35;;;25.80;;
52618;SDS011;38513;53.234;6.568;2022-11-15T09:40:23;34.30;;;25.77;;
52618;SDS011;38513;53.234;6.568;2022-11-15T09:51:13;28.83;;;24.15;;
52618;SDS011;38513;53.234;6.568;2022-11-15T10:00:18;31.02;;;23.88;;
52618;SDS011;38513;53.234;6.568;2022-11-15T10:02:58;30.85;;;23.83;;
52618;SDS011;38513;53.234;6.568;2022-11-15T10:05:31;31.70;;;24.13;;
52618;SDS011;38513;53.234;6.568;2022-11-15T10:10:47;30.17;;;23.60;;
52618;SDS011;38513;53.234;6.568;2022-11-15T10:13:22;32.90;;;23.88;;
52618;SDS011;38513;53.234;6.568;2022-11-15T10:15:49;31.35;;;23.00;;
52618;SDS011;38513;53.234;6.568;2022-11-15T10:21:14;31.90;;;22.25;;
52618;SDS011;38513;53.234;6.568;2022-11-15T10:23:41;29.67;;;22.05;;
52618;SDS011;38513;53.234;6.568;2022-11-15T10:26:16;28.25;;;21.10;;
52618;SDS011;38513;53.234;6.568;2022-11-15T10:28:43;28.77;;;21.23;;
52618;SDS011;38513;53.234;6.568;2022-11-15T10:31:26;29.45;;;21.98;;
52618;SDS011;38513;53.234;6.568;2022-11-15T10:34:39;31.10;;;21.37;;
52618;SDS011;38513;53.234;6.568;2022-11-15T10:37:01;32.00;;;21.65;;
52618;SDS011;38513;53.234;6.568;2022-11-15T10:39:27;27.42;;;21.50;;
52618;SDS011;38513;53.234;6.568;2022-11-15T10:41:53;27.92;;;21.23;;
52618;SDS011;38513;53.234;6.568;2022-11-15T10:46:50;28.95;;;21.10;;
52618;SDS011;38513;53.234;6.568;2022-11-15T10:49:52;29.35;;;20.33;;
52618;SDS011;38513;53.234;6.568;2022-11-15T10:52:19;28.35;;;20.48;;
52618;SDS011;38513;53.234;6.568;2022-11-15T10:54:55;26.75;;;20.42;;
52618;SDS011;38513;53.234;6.568;2022-11-15T10:57:24;28.90;;;21.00;;
52618;SDS011;38513;53.234;6.568;2022-11-15T10:59:54;27.00;;;20.95;;
52618;SDS011;38513;53.234;6.568;2022-11-15T11:02:28;26.30;;;20.67;;
52618;SDS011;38513;53.234;6.568;2022-11-15T11:04:55;28.88;;;21.40;;
52618;SDS011;38513;53.234;6.568;2022-11-15T11:07:23;32.00;;;24.07;;
52618;SDS011;38513;53.234;6.568;2022-11-15T11:12:53;29.25;;;22.45;;
52618;SDS011;38513;53.234;6.568;2022-11-15T11:15:19;29.88;;;22.83;;
52618;SDS011;38513;53.234;6.568;2022-11-15T11:20:18;30.25;;;22.52;;
52618;SDS011;38513;53.234;6.568;2022-11-15T11:25:24;31.27;;;23.13;;
52618;SDS011;38513;53.234;6.568;2022-11-15T11:28:02;27.55;;;22.45;;
52618;SDS011;38513;53.234;6.568;2022-11-15T11:30:40;28.85;;;22.85;;
52618;SDS011;38513;53.234;6.568;2022-11-15T11:48:00;23.13;;;18.88;;
52618;SDS011;38513;53.234;6.568;2022-11-15T11:50:29;24.08;;;18.10;;
52618;SDS011;38513;53.234;6.568;2022-11-15T11:59:21;20.58;;;16.98;;
52618;SDS011;38513;53.234;6.568;2022-11-15T12:01:48;19.95;;;15.77;;
52618;SDS011;38513;53.234;6.568;2022-11-15T12:04:36;18.30;;;14.93;;
52618;SDS011;38513;53.234;6.568;2022-11-15T12:07:08;19.77;;;15.18;;
52618;SDS011;38513;53.234;6.568;2022-11-15T12:09:41;19.23;;;14.43;;
52618;SDS011;38513;53.234;6.568;2022-11-15T12:17:11;16.98;;;13.18;;
52618;SDS011;38513;53.234;6.568;2022-11-15T12:19:37;16.13;;;12.93;;
52618;SDS011;38513;53.234;6.568;2022-11-15T12:27:13;14.67;;;11.33;;
52618;SDS011;38513;53.234;6.568;2022-11-15T12:29:50;14.52;;;10.77;;
52618;SDS011;38513;53.234;6.568;2022-11-15T12:32:25;13.68;;;9.93;;
52618;SDS011;38513;53.234;6.568;2022-11-15T12:34:52;13.15;;;9.45;;
52618;SDS011;38513;53.234;6.568;2022-11-15T12:40:22;14.35;;;9.50;;
52618;SDS011;38513;53.234;6.568;2022-11-15T12:43:02;15.57;;;8.93;;
52618;SDS011;38513;53.234;6.568;2022-11-15T12:45:33;12.05;;;8.73;;
52618;SDS011;38513;53.234;6.568;2022-11-15T12:51:07;12.30;;;8.60;;
52618;SDS011;38513;53.234;6.568;2022-11-15T12:53:34;11.50;;;8.40;;
52618;SDS011;38513;53.234;6.568;2022-11-15T12:58:43;12.40;;;7.25;;
52618;SDS011;38513;53.234;6.568;2022-11-15T13:06:40;12.73;;;6.95;;
52618;SDS011;38513;53.234;6.568;2022-11-15T13:11:52;10.90;;;6.57;;
52618;SDS011;38513;53.234;6.568;2022-11-15T13:17:16;9.68;;;5.95;;
52618;SDS011;38513;53.234;6.568;2022-11-15T13:19:43;9.90;;;5.57;;
52618;SDS011;38513;53.234;6.568;2022-11-15T13:22:09;10.77;;;5.95;;
52618;SDS011;38513;53.234;6.568;2022-11-15T13:24:54;10.88;;;5.28;;
52618;SDS011;38513;53.234;6.568;2022-11-15T13:27:21;9.50;;;5.07;;
52618;SDS011;38513;53.234;6.568;2022-11-15T13:29:47;9.93;;;5.23;;
52618;SDS011;38513;53.234;6.568;2022-11-15T13:32:14;9.13;;;4.90;;
52618;SDS011;38513;53.234;6.568;2022-11-15T13:34:45;11.50;;;5.30;;
52618;SDS011;38513;53.234;6.568;2022-11-15T13:39:48;10.55;;;5.63;;
52618;SDS011;38513;53.234;6.568;2022-11-15T13:42:15;11.18;;;5.82;;
52618;SDS011;38513;53.234;6.568;2022-11-15T13:44:54;11.57;;;6.13;;
52618;SDS011;38513;53.234;6.568;2022-11-15T13:47:20;10.93;;;5.22;;
52618;SDS011;38513;53.234;6.568;2022-11-15T13:49:46;9.77;;;5.30;;
52618;SDS011;38513;53.234;6.568;2022-11-15T13:52:13;8.90;;;5.05;;
52618;SDS011;38513;53.234;6.568;2022-11-15T14:00:32;8.30;;;4.47;;
52618;SDS011;38513;53.234;6.568;2022-11-15T14:03:19;8.93;;;4.63;;
52618;SDS011;38513;53.234;6.568;2022-11-15T14:06:00;13.45;;;5.20;;
52618;SDS011;38513;53.234;6.568;2022-11-15T14:08:28;8.95;;;4.70;;
52618;SDS011;38513;53.234;6.568;2022-11-15T14:13:33;10.57;;;4.65;;
52618;SDS011;38513;53.234;6.568;2022-11-15T14:18:58;10.88;;;5.18;;
52618;SDS011;38513;53.234;6.568;2022-11-15T14:21:24;10.45;;;5.38;;
52618;SDS011;38513;53.234;6.568;2022-11-15T14:23:50;8.82;;;5.10;;
52618;SDS011;38513;53.234;6.568;2022-11-15T14:26:30;9.65;;;5.30;;
52618;SDS011;38513;53.234;6.568;2022-11-15T14:28:56;11.73;;;6.20;;
52618;SDS011;38513;53.234;6.568;2022-11-15T14:31:22;10.90;;;5.53;;
52618;SDS011;38513;53.234;6.568;2022-11-15T14:33:49;10.77;;;5.70;;
52618;SDS011;38513;53.234;6.568;2022-11-15T14:36:16;10.43;;;5.55;;
52618;SDS011;38513;53.234;6.568;2022-11-15T14:38:43;9.50;;;5.57;;
52618;SDS011;38513;53.234;6.568;2022-11-15T14:41:19;11.00;;;5.70;;
52618;SDS011;38513;53.234;6.568;2022-11-15T14:43:46;10.57;;;5.38;;
52618;SDS011;38513;53.234;6.568;2022-11-15T14:46:12;11.07;;;5.38;;
52618;SDS011;38513;53.234;6.568;2022-11-15T14:48:38;9.10;;;4.85;;
52618;SDS011;38513;53.234;6.568;2022-11-15T14:51:09;9.23;;;4.88;;
52618;SDS011;38513;53.234;6.568;2022-11-15T14:53:36;10.52;;;5.10;;
52618;SDS011;38513;53.234;6.568;2022-11-15T14:56:03;8.68;;;4.55;;
52618;SDS011;38513;53.234;6.568;2022-11-15T14:58:29;9.52;;;4.70;;
52618;SDS011;38513;53.234;6.568;2022-11-15T15:00:55;10.35;;;4.68;;
52618;SDS011;38513;53.234;6.568;2022-11-15T15:03:21;8.85;;;5.00;;
52618;SDS011;38513;53.234;6.568;2022-11-15T15:05:51;9.18;;;4.20;;
52618;SDS011;38513;53.234;6.568;2022-11-15T15:08:22;8.10;;;4.22;;
52618;SDS011;38513;53.234;6.568;2022-11-15T15:13:40;8.80;;;4.32;;
52618;SDS011;38513;53.234;6.568;2022-11-15T15:16:06;10.38;;;4.63;;
52618;SDS011;38513;53.234;6.568;2022-11-15T15:18:32;10.55;;;4.97;;
52618;SDS011;38513;53.234;6.568;2022-11-15T15:20:59;9.70;;;4.83;;
52618;SDS011;38513;53.234;6.568;2022-11-15T15:23:53;10.48;;;5.63;;
52618;SDS011;38513;53.234;6.568;2022-11-15T15:26:21;10.05;;;5.20;;
52618;SDS011;38513;53.234;6.568;2022-11-15T15:28:47;11.00;;;5.72;;
52618;SDS011;38513;53.234;6.568;2022-11-15T15:31:13;11.00;;;6.13;;
52618;SDS011;38513;53.234;6.568;2022-11-15T15:33:40;11.65;;;6.10;;
52618;SDS011;38513;53.234;6.568;2022-11-15T15:36:21;10.73;;;5.50;;
52618;SDS011;38513;53.234;6.568;2022-11-15T15:38:47;10.73;;;5.67;;
52618;SDS011;38513;53.234;6.568;2022-11-15T15:47:10;9.50;;;5.25;;
52618;SDS011;38513;53.234;6.568;2022-11-15T15:49:37;10.82;;;5.68;;
52618;SDS011;38513;53.234;6.568;2022-11-15T15:52:03;8.85;;;5.30;;
52618;SDS011;38513;53.234;6.568;2022-11-15T15:54:29;9.52;;;5.85;;
52618;SDS011;38513;53.234;6.568;2022-11-15T15:56:55;10.30;;;5.70;;
52618;SDS011;38513;53.234;6.568;2022-11-15T15:59:21;9.55;;;5.68;;
52618;SDS011;38513;53.234;6.568;2022-11-15T16:11:38;11.63;;;6.35;;
52618;SDS011;38513;53.234;6.568;2022-11-15T16:14:05;10.83;;;6.50;;
52618;SDS011;38513;53.234;6.568;2022-11-15T16:16:31;10.25;;;6.30;;
52618;SDS011;38513;53.234;6.568;2022-11-15T16:18:59;11.45;;;7.20;;
52618;SDS011;38513;53.234;6.568;2022-11-15T16:21:26;9.90;;;6.78;;
52618;SDS011;38513;53.234;6.568;2022-11-15T16:23:58;11.13;;;7.15;;
52618;SDS011;38513;53.234;6.568;2022-11-15T16:26:58;11.60;;;7.70;;
52618;SDS011;38513;53.234;6.568;2022-11-15T16:29:24;12.48;;;8.23;;
52618;SDS011;38513;53.234;6.568;2022-11-15T16:31:50;11.20;;;7.40;;
52618;SDS011;38513;53.234;6.568;2022-11-15T16:34:17;10.82;;;7.78;;
52618;SDS011;38513;53.234;6.568;2022-11-15T16:36:46;11.88;;;7.68;;
52618;SDS011;38513;53.234;6.568;2022-11-15T16:39:13;10.70;;;7.70;;
52618;SDS011;38513;53.234;6.568;2022-11-15T16:41:46;11.02;;;7.60;;
52618;SDS011;38513;53.234;6.568;2022-11-15T16:44:12;9.52;;;7.13;;
52618;SDS011;38513;53.234;6.568;2022-11-15T16:46:58;10.50;;;7.27;;
52618;SDS011;38513;53.234;6.568;2022-11-15T16:52:16;9.63;;;6.60;;
52618;SDS011;38513;53.234;6.568;2022-11-15T16:54:50;11.25;;;6.65;;
52618;SDS011;38513;53.234;6.568;2022-11-15T16:57:22;9.30;;;6.10;;
52618;SDS011;38513;53.234;6.568;2022-11-15T17:00:09;9.57;;;5.50;;
52618;SDS011;38513;53.234;6.568;2022-11-15T17:02:36;8.07;;;5.05;;
52618;SDS011;38513;53.234;6.568;2022-11-15T17:05:08;7.65;;;5.13;;
52618;SDS011;38513;53.234;6.568;2022-11-15T17:07:34;7.85;;;4.82;;
52618;SDS011;38513;53.234;6.568;2022-11-15T17:10:00;9.10;;;4.70;;
52618;SDS011;38513;53.234;6.568;2022-11-15T17:12:27;8.23;;;4.30;;
52618;SDS011;38513;53.234;6.568;2022-11-15T17:14:56;8.30;;;4.22;;
52618;SDS011;38513;53.234;6.568;2022-11-15T17:17:22;7.63;;;3.80;;
52618;SDS011;38513;53.234;6.568;2022-11-15T17:19:50;6.90;;;3.60;;
52618;SDS011;38513;53.234;6.568;2022-11-15T17:22:21;9.73;;;3.70;;
52618;SDS011;38513;53.234;6.568;2022-11-15T17:24:59;6.35;;;3.38;;